sensor_id;sensor_type;location;lat;lon;timestamp;pressure;altitude;pressure_sealevel;temperature;humidity
62103;BME280;48077;48.104;11.702;2023-06-10T00:00:53;95099.34;;;13.51;98.26
62103;BME280;48077;48.104;11.702;2023-06-10T00:07:41;95100.13;;;13.46;98.23
62103;BME280;48077;48.104;11.702;2023-06-10T00:10:05;95098.78;;;13.44;98.49
62103;BME280;48077;48.104;11.702;2023-06-10T00:12:29;95099.03;;;13.42;98.96
62103;BME280;48077;48.104;11.702;2023-06-10T00:14:54;95091.81;;;13.43;98.85
62103;BME280;48077;48.104;11.702;2023-06-10T00:17:17;95098.75;;;13.39;99.16
62103;BME280;48077;48.104;11.702;2023-06-10T00:19:41;95099.78;;;13.32;99.34
62103;BME280;48077;48.104;11.702;2023-06-10T00:22:05;95081.75;;;13.23;99.68
62103;BME280;48077;48.104;11.702;2023-06-10T00:24:28;95094.97;;;13.29;100.00
62103;BME280;48077;48.104;11.702;2023-06-10T00:26:55;95100.00;;;13.26;99.67
62103;BME280;48077;48.104;11.702;2023-06-10T00:29:19;95100.25;;;13.24;99.53
62103;BME280;48077;48.104;11.702;2023-06-10T00:31:44;95106.38;;;13.20;100.00
62103;BME280;48077;48.104;11.702;2023-06-10T00:34:08;95100.78;;;13.21;100.00
62103;BME280;48077;48.104;11.702;2023-06-10T00:36:31;95087.56;;;13.09;100.00
62103;BME280;48077;48.104;11.702;2023-06-10T00:38:54;95104.47;;;13.15;100.00
62103;BME280;48077;48.104;11.702;2023-06-10T00:41:18;95102.84;;;13.14;100.00
62103;BME280;48077;48.104;11.702;2023-06-10T00:43:41;95103.66;;;13.14;100.00
62103;BME280;48077;48.104;11.702;2023-06-10T00:46:05;95108.19;;;13.09;100.00
62103;BME280;48077;48.104;11.702;2023-06-10T00:48:28;95096.13;;;13.06;100.00
62103;BME280;48077;48.104;11.702;2023-06-10T00:50:52;95104.25;;;13.22;100.00
62103;BME280;48077;48.104;11.702;2023-06-10T00:53:16;95091.34;;;13.13;100.00
62103;BME280;48077;48.104;11.702;2023-06-10T00:55:40;95078.44;;;13.05;99.82
62103;BME280;48077;48.104;11.702;2023-06-10T00:58:04;95106.41;;;13.25;99.91
62103;BME280;48077;48.104;11.702;2023-06-10T01:00:27;95100.47;;;13.18;99.93
62103;BME280;48077;48.104;11.702;2023-06-10T01:02:51;95104.75;;;13.19;99.81
62103;BME280;48077;48.104;11.702;2023-06-10T01:05:15;95107.97;;;13.15;100.00
62103;BME280;48077;48.104;11.702;2023-06-10T01:07:58;95104.16;;;13.06;100.00
62103;BME280;48077;48.104;11.702;2023-06-10T01:12:58;95108.97;;;13.04;100.00
62103;BME280;48077;48.104;11.702;2023-06-10T01:15:22;95119.19;;;13.12;100.00
62103;BME280;48077;48.104;11.702;2023-06-10T01:17:56;95116.00;;;13.15;98.62
62103;BME280;48077;48.104;11.702;2023-06-10T01:20:21;95111.13;;;13.07;98.06
62103;BME280;48077;48.104;11.702;2023-06-10T01:22:44;95111.59;;;12.99;97.78
62103;BME280;48077;48.104;11.702;2023-06-10T01:25:08;95105.31;;;12.83;98.07
62103;BME280;48077;48.104;11.702;2023-06-10T01:27:33;95096.63;;;12.66;98.73
62103;BME280;48077;48.104;11.702;2023-06-10T01:30:14;95098.66;;;12.53;99.14
62103;BME280;48077;48.104;11.702;2023-06-10T01:32:45;95106.66;;;12.48;99.50
62103;BME280;48077;48.104;11.702;2023-06-10T01:35:09;95106.25;;;12.34;100.00
62103;BME280;48077;48.104;11.702;2023-06-10T01:37:33;95109.47;;;12.37;100.00
62103;BME280;48077;48.104;11.702;2023-06-10T01:40:00;95088.22;;;12.25;100.00
62103;BME280;48077;48.104;11.702;2023-06-10T01:42:27;95109.22;;;12.38;100.00
62103;BME280;48077;48.104;11.702;2023-06-10T01:44:51;95094.66;;;12.24;100.00
62103;BME280;48077;48.104;11.702;2023-06-10T01:47:15;95106.34;;;12.18;100.00
62103;BME280;48077;48.104;11.702;2023-06-10T01:49:38;95112.50;;;12.18;100.00
62103;BME280;48077;48.104;11.702;2023-06-10T01:52:01;95101.13;;;12.06;100.00
62103;BME280;48077;48.104;11.702;2023-06-10T01:54:25;95096.75;;;11.94;100.00
62103;BME280;48077;48.104;11.702;2023-06-10T01:56:48;95097.50;;;11.90;100.00
62103;BME280;48077;48.104;11.702;2023-06-10T01:59:11;95094.16;;;11.83;100.00
62103;BME280;48077;48.104;11.702;2023-06-10T02:01:35;95124.03;;;11.97;100.00
62103;BME280;48077;48.104;11.702;2023-06-10T02:03:58;95121.03;;;11.93;100.00
62103;BME280;48077;48.104;11.702;2023-06-10T02:06:21;95101.81;;;11.74;100.00
62103;BME280;48077;48.104;11.702;2023-06-10T02:08:45;95096.25;;;11.75;100.00
62103;BME280;48077;48.104;11.702;2023-06-10T02:11:08;95124.47;;;11.88;100.00
62103;BME280;48077;48.104;11.702;2023-06-10T02:13:32;95122.53;;;11.84;100.00
62103;BME280;48077;48.104;11.702;2023-06-10T02:15:55;95117.94;;;11.79;100.00
62103;BME280;48077;48.104;11.702;2023-06-10T02:18:18;95116.81;;;11.75;100.00
62103;BME280;48077;48.104;11.702;2023-06-10T02:20:43;95102.50;;;11.64;100.00
62103;BME280;48077;48.104;11.702;2023-06-10T02:23:07;95130.34;;;11.68;100.00
62103;BME280;48077;48.104;11.702;2023-06-10T02:25:30;95108.78;;;11.53;100.00
62103;BME280;48077;48.104;11.702;2023-06-10T02:27:54;95117.97;;;11.62;100.00
62103;BME280;48077;48.104;11.702;2023-06-10T02:30:17;95116.03;;;11.58;100.00
62103;BME280;48077;48.104;11.702;2023-06-10T02:32:40;95123.81;;;11.59;100.00
62103;BME280;48077;48.104;11.702;2023-06-10T02:35:05;95122.13;;;11.53;100.00
62103;BME280;48077;48.104;11.702;2023-06-10T02:37:28;95118.28;;;11.44;100.00
62103;BME280;48077;48.104;11.702;2023-06-10T02:39:51;95115.22;;;11.35;100.00
62103;BME280;48077;48.104;11.702;2023-06-10T02:42:15;95121.13;;;11.37;100.00
62103;BME280;48077;48.104;11.702;2023-06-10T02:44:38;95107.63;;;11.27;100.00
62103;BME280;48077;48.104;11.702;2023-06-10T02:47:01;95120.63;;;11.40;100.00
62103;BME280;48077;48.104;11.702;2023-06-10T02:49:25;95129.78;;;11.44;100.00
62103;BME280;48077;48.104;11.702;2023-06-10T02:51:50;95125.19;;;11.40;100.00
62103;BME280;48077;48.104;11.702;2023-06-10T02:54:17;95121.38;;;11.36;100.00
62103;BME280;48077;48.104;11.702;2023-06-10T02:56:40;95115.41;;;11.28;100.00
62103;BME280;48077;48.104;11.702;2023-06-10T02:59:04;95117.81;;;11.30;100.00
62103;BME280;48077;48.104;11.702;2023-06-10T03:01:30;95113.78;;;11.27;100.00
62103;BME280;48077;48.104;11.702;2023-06-10T03:03:54;95102.31;;;11.10;100.00
62103;BME280;48077;48.104;11.702;2023-06-10T03:06:19;95125.47;;;11.21;100.00
62103;BME280;48077;48.104;11.702;2023-06-10T03:08:42;95115.75;;;11.15;100.00
62103;BME280;48077;48.104;11.702;2023-06-10T03:11:06;95129.72;;;11.22;100.00
62103;BME280;48077;48.104;11.702;2023-06-10T03:13:29;95123.75;;;11.15;100.00
62103;BME280;48077;48.104;11.702;2023-06-10T03:15:53;95128.78;;;11.11;100.00
62103;BME280;48077;48.104;11.702;2023-06-10T03:18:16;95138.88;;;11.09;100.00
62103;BME280;48077;48.104;11.702;2023-06-10T03:20:40;95118.84;;;10.90;100.00
62103;BME280;48077;48.104;11.702;2023-06-10T03:23:06;95141.97;;;11.01;100.00
62103;BME280;48077;48.104;11.702;2023-06-10T03:25:30;95146.81;;;11.04;100.00
62103;BME280;48077;48.104;11.702;2023-06-10T03:27:53;95150.13;;;11.11;100.00
62103;BME280;48077;48.104;11.702;2023-06-10T03:30:17;95153.91;;;11.16;100.00
62103;BME280;48077;48.104;11.702;2023-06-10T03:32:40;95138.88;;;11.09;100.00
62103;BME280;48077;48.104;11.702;2023-06-10T03:35:04;95145.19;;;11.03;100.00
62103;BME280;48077;48.104;11.702;2023-06-10T03:37:28;95147.53;;;11.00;100.00
62103;BME280;48077;48.104;11.702;2023-06-10T03:39:51;95157.25;;;11.06;100.00
62103;BME280;48077;48.104;11.702;2023-06-10T03:42:14;95162.75;;;10.99;100.00
62103;BME280;48077;48.104;11.702;2023-06-10T03:44:38;95160.66;;;11.01;100.00
62103;BME280;48077;48.104;11.702;2023-06-10T03:47:01;95142.94;;;10.95;100.00
62103;BME280;48077;48.104;11.702;2023-06-10T03:49:24;95153.19;;;11.03;100.00
62103;BME280;48077;48.104;11.702;2023-06-10T03:51:50;95157.25;;;11.06;100.00
62103;BME280;48077;48.104;11.702;2023-06-10T03:54:13;95164.78;;;11.09;100.00
62103;BME280;48077;48.104;11.702;2023-06-10T03:56:36;95150.19;;;11.00;100.00
62103;BME280;48077;48.104;11.702;2023-06-10T03:59:00;95163.97;;;11.08;100.00
62103;BME280;48077;48.104;11.702;2023-06-10T04:01:23;95155.06;;;11.03;100.00
62103;BME280;48077;48.104;11.702;2023-06-10T04:03:47;95169.69;;;11.17;100.00
62103;BME280;48077;48.104;11.702;2023-06-10T04:06:12;95159.75;;;11.12;100.00
62103;BME280;48077;48.104;11.702;2023-06-10T04:08:35;95178.75;;;11.16;100.00
62103;BME280;48077;48.104;11.702;2023-06-10T04:10:59;95160.97;;;11.05;100.00
62103;BME280;48077;48.104;11.702;2023-06-10T04:13:23;95161.22;;;11.03;100.00
62103;BME280;48077;48.104;11.702;2023-06-10T04:15:46;95168.81;;;11.11;100.00
62103;BME280;48077;48.104;11.702;2023-06-10T04:18:09;95180.13;;;11.19;100.00
62103;BME280;48077;48.104;11.702;2023-06-10T04:20:33;95182.63;;;11.25;100.00
62103;BME280;48077;48.104;11.702;2023-06-10T04:22:56;95169.34;;;11.30;100.00
62103;BME280;48077;48.104;11.702;2023-06-10T04:25:20;95178.31;;;11.41;100.00
62103;BME280;48077;48.104;11.702;2023-06-10T04:27:43;95186.97;;;11.48;100.00
62103;BME280;48077;48.104;11.702;2023-06-10T04:30:07;95190.03;;;11.57;100.00
62103;BME280;48077;48.104;11.702;2023-06-10T04:32:30;95191.72;;;11.63;100.00
62103;BME280;48077;48.104;11.702;2023-06-10T04:34:53;95192.34;;;11.70;100.00
62103;BME280;48077;48.104;11.702;2023-06-10T04:37:17;95190.31;;;11.78;100.00
62103;BME280;48077;48.104;11.702;2023-06-10T04:39:41;95187.41;;;11.79;100.00
62103;BME280;48077;48.104;11.702;2023-06-10T04:42:04;95170.25;;;11.75;100.00
62103;BME280;48077;48.104;11.702;2023-06-10T04:44:28;95184.19;;;11.99;100.00
62103;BME280;48077;48.104;11.702;2023-06-10T04:46:54;95185.00;;;12.22;100.00
62103;BME280;48077;48.104;11.702;2023-06-10T04:49:18;95183.00;;;12.34;100.00
62103;BME280;48077;48.104;11.702;2023-06-10T04:51:42;95186.13;;;12.53;100.00
62103;BME280;48077;48.104;11.702;2023-06-10T04:54:05;95197.59;;;12.75;100.00
62103;BME280;48077;48.104;11.702;2023-06-10T04:56:29;95198.78;;;12.90;100.00
62103;BME280;48077;48.104;11.702;2023-06-10T04:58:53;95188.44;;;13.04;100.00
62103;BME280;48077;48.104;11.702;2023-06-10T05:01:16;95186.38;;;13.11;100.00
62103;BME280;48077;48.104;11.702;2023-06-10T05:03:40;95193.97;;;13.24;100.00
62103;BME280;48077;48.104;11.702;2023-06-10T05:06:05;95195.16;;;13.33;100.00
62103;BME280;48077;48.104;11.702;2023-06-10T05:08:28;95188.53;;;13.46;100.00
62103;BME280;48077;48.104;11.702;2023-06-10T05:10:52;95194.53;;;13.59;100.00
62103;BME280;48077;48.104;11.702;2023-06-10T05:13:16;95196.19;;;13.70;100.00
62103;BME280;48077;48.104;11.702;2023-06-10T05:15:40;95184.44;;;13.76;100.00
62103;BME280;48077;48.104;11.702;2023-06-10T05:18:07;95197.66;;;13.93;100.00
62103;BME280;48077;48.104;11.702;2023-06-10T05:20:30;95192.03;;;14.00;100.00
62103;BME280;48077;48.104;11.702;2023-06-10T05:22:54;95197.19;;;14.16;100.00
62103;BME280;48077;48.104;11.702;2023-06-10T05:25:17;95188.94;;;14.23;100.00
62103;BME280;48077;48.104;11.702;2023-06-10T05:27:41;95183.59;;;14.33;100.00
62103;BME280;48077;48.104;11.702;2023-06-10T05:30:05;95194.13;;;14.50;100.00
62103;BME280;48077;48.104;11.702;2023-06-10T05:32:30;95193.09;;;14.62;100.00
62103;BME280;48077;48.104;11.702;2023-06-10T05:34:54;95192.34;;;14.82;100.00
62103;BME280;48077;48.104;11.702;2023-06-10T05:37:17;95199.59;;;14.86;100.00
62103;BME280;48077;48.104;11.702;2023-06-10T05:39:41;95200.41;;;14.92;100.00
62103;BME280;48077;48.104;11.702;2023-06-10T05:42:06;95192.88;;;14.94;100.00
62103;BME280;48077;48.104;11.702;2023-06-10T05:44:29;95189.41;;;14.98;100.00
62103;BME280;48077;48.104;11.702;2023-06-10T05:46:53;95195.56;;;15.25;100.00
62103;BME280;48077;48.104;11.702;2023-06-10T05:49:16;95193.16;;;15.28;100.00
62103;BME280;48077;48.104;11.702;2023-06-10T05:51:39;95194.78;;;15.40;100.00
62103;BME280;48077;48.104;11.702;2023-06-10T05:54:03;95206.31;;;15.45;100.00
62103;BME280;48077;48.104;11.702;2023-06-10T05:56:26;95202.78;;;15.50;100.00
62103;BME280;48077;48.104;11.702;2023-06-10T05:58:50;95196.88;;;15.58;99.67
62103;BME280;48077;48.104;11.702;2023-06-10T06:01:14;95192.03;;;15.65;100.00
62103;BME280;48077;48.104;11.702;2023-06-10T06:03:37;95186.66;;;15.60;100.00
62103;BME280;48077;48.104;11.702;2023-06-10T06:06:00;95192.84;;;15.76;99.58
62103;BME280;48077;48.104;11.702;2023-06-10T06:08:24;95193.38;;;15.78;98.71
62103;BME280;48077;48.104;11.702;2023-06-10T06:10:47;95194.19;;;15.84;97.96
62103;BME280;48077;48.104;11.702;2023-06-10T06:13:11;95200.06;;;15.96;98.07
62103;BME280;48077;48.104;11.702;2023-06-10T06:15:34;95199.75;;;16.08;96.29
62103;BME280;48077;48.104;11.702;2023-06-10T06:17:57;95191.97;;;16.01;96.22
62103;BME280;48077;48.104;11.702;2023-06-10T06:20:22;95198.13;;;16.17;95.41
62103;BME280;48077;48.104;11.702;2023-06-10T06:22:45;95205.34;;;16.16;95.89
62103;BME280;48077;48.104;11.702;2023-06-10T06:25:09;95213.41;;;16.27;95.89
62103;BME280;48077;48.104;11.702;2023-06-10T06:27:32;95210.97;;;16.30;95.72
62103;BME280;48077;48.104;11.702;2023-06-10T06:29:56;95210.13;;;16.40;95.68
62103;BME280;48077;48.104;11.702;2023-06-10T06:32:19;95204.75;;;16.40;96.00
62103;BME280;48077;48.104;11.702;2023-06-10T06:34:42;95209.50;;;16.53;95.05
62103;BME280;48077;48.104;11.702;2023-06-10T06:37:06;95213.31;;;16.47;94.83
62103;BME280;48077;48.104;11.702;2023-06-10T06:39:29;95203.66;;;16.41;94.47
62103;BME280;48077;48.104;11.702;2023-06-10T06:41:53;95208.50;;;16.44;94.53
62103;BME280;48077;48.104;11.702;2023-06-10T06:44:16;95206.81;;;16.53;94.20
62103;BME280;48077;48.104;11.702;2023-06-10T06:46:40;95218.66;;;16.57;93.89
62103;BME280;48077;48.104;11.702;2023-06-10T06:49:03;95186.13;;;16.49;93.85
62103;BME280;48077;48.104;11.702;2023-06-10T06:51:26;95210.25;;;16.69;94.39
62103;BME280;48077;48.104;11.702;2023-06-10T06:53:50;95205.34;;;16.76;93.09
62103;BME280;48077;48.104;11.702;2023-06-10T06:56:14;95191.66;;;16.73;92.09
62103;BME280;48077;48.104;11.702;2023-06-10T06:58:37;95207.16;;;16.91;92.12
62103;BME280;48077;48.104;11.702;2023-06-10T07:01:01;95209.53;;;17.03;91.27
62103;BME280;48077;48.104;11.702;2023-06-10T07:03:24;95202.16;;;17.19;89.27
62103;BME280;48077;48.104;11.702;2023-06-10T07:05:47;95192.50;;;17.13;89.02
62103;BME280;48077;48.104;11.702;2023-06-10T07:08:11;95212.03;;;17.29;89.88
62103;BME280;48077;48.104;11.702;2023-06-10T07:10:35;95214.88;;;17.43;89.33
62103;BME280;48077;48.104;11.702;2023-06-10T07:13:00;95180.44;;;17.34;90.27
62103;BME280;48077;48.104;11.702;2023-06-10T07:15:24;95214.31;;;17.75;88.11
62103;BME280;48077;48.104;11.702;2023-06-10T07:17:47;95213.47;;;17.79;88.00
62103;BME280;48077;48.104;11.702;2023-06-10T07:20:11;95218.03;;;17.84;86.52
62103;BME280;48077;48.104;11.702;2023-06-10T07:22:34;95212.13;;;18.06;85.88
62103;BME280;48077;48.104;11.702;2023-06-10T07:24:58;95217.66;;;18.20;83.61
62103;BME280;48077;48.104;11.702;2023-06-10T07:27:21;95205.06;;;18.10;83.22
62103;BME280;48077;48.104;11.702;2023-06-10T07:29:45;95213.00;;;18.26;83.90
62103;BME280;48077;48.104;11.702;2023-06-10T07:32:08;95207.38;;;18.22;83.48
62103;BME280;48077;48.104;11.702;2023-06-10T07:34:31;95203.88;;;18.22;82.56
62103;BME280;48077;48.104;11.702;2023-06-10T07:36:57;95214.47;;;18.37;82.03
62103;BME280;48077;48.104;11.702;2023-06-10T07:39:20;95205.81;;;18.40;82.66
62103;BME280;48077;48.104;11.702;2023-06-10T07:41:44;95204.16;;;18.44;79.47
62103;BME280;48077;48.104;11.702;2023-06-10T07:44:07;95209.72;;;18.53;80.59
62103;BME280;48077;48.104;11.702;2023-06-10T07:46:30;95213.31;;;18.67;80.09
62103;BME280;48077;48.104;11.702;2023-06-10T07:48:54;95218.13;;;18.70;78.83
62103;BME280;48077;48.104;11.702;2023-06-10T07:51:18;95202.38;;;18.77;79.42
62103;BME280;48077;48.104;11.702;2023-06-10T07:53:41;95210.13;;;18.84;78.05
62103;BME280;48077;48.104;11.702;2023-06-10T07:56:04;95196.91;;;18.83;77.82
62103;BME280;48077;48.104;11.702;2023-06-10T07:58:28;95203.41;;;19.00;74.65
62103;BME280;48077;48.104;11.702;2023-06-10T08:00:51;95196.09;;;19.01;74.71
62103;BME280;48077;48.104;11.702;2023-06-10T08:03:14;95212.91;;;19.17;77.38
62103;BME280;48077;48.104;11.702;2023-06-10T08:05:39;95206.00;;;19.25;76.61
62103;BME280;48077;48.104;11.702;2023-06-10T08:08:03;95199.56;;;19.20;74.36
62103;BME280;48077;48.104;11.702;2023-06-10T08:10:26;95208.00;;;19.19;75.52
62103;BME280;48077;48.104;11.702;2023-06-10T08:12:50;95214.88;;;19.11;77.52
62103;BME280;48077;48.104;11.702;2023-06-10T08:15:13;95218.66;;;19.10;75.81
62103;BME280;48077;48.104;11.702;2023-06-10T08:17:37;95215.75;;;19.07;75.22
62103;BME280;48077;48.104;11.702;2023-06-10T08:20:01;95198.94;;;19.10;73.51
62103;BME280;48077;48.104;11.702;2023-06-10T08:22:24;95216.03;;;19.24;73.59
62103;BME280;48077;48.104;11.702;2023-06-10T08:24:47;95206.28;;;19.42;71.37
62103;BME280;48077;48.104;11.702;2023-06-10T08:27:11;95207.09;;;19.42;73.47
62103;BME280;48077;48.104;11.702;2023-06-10T08:29:34;95216.00;;;19.43;72.07
62103;BME280;48077;48.104;11.702;2023-06-10T08:31:58;95202.81;;;19.55;71.11
62103;BME280;48077;48.104;11.702;2023-06-10T08:34:21;95210.81;;;19.79;70.07
62103;BME280;48077;48.104;11.702;2023-06-10T08:36:44;95210.06;;;20.07;68.90
62103;BME280;48077;48.104;11.702;2023-06-10T08:39:08;95207.84;;;20.09;68.41
62103;BME280;48077;48.104;11.702;2023-06-10T08:41:35;95216.47;;;20.11;66.26
62103;BME280;48077;48.104;11.702;2023-06-10T08:44:12;95205.59;;;19.83;69.19
62103;BME280;48077;48.104;11.702;2023-06-10T08:46:38;95213.53;;;19.93;69.41
62103;BME280;48077;48.104;11.702;2023-06-10T08:49:07;95213.56;;;20.21;67.01
62103;BME280;48077;48.104;11.702;2023-06-10T08:51:35;95217.78;;;20.41;66.62
62103;BME280;48077;48.104;11.702;2023-06-10T08:54:07;95213.25;;;20.64;66.66
62103;BME280;48077;48.104;11.702;2023-06-10T08:56:35;95200.91;;;20.72;65.47
62103;BME280;48077;48.104;11.702;2023-06-10T08:59:02;95213.84;;;20.75;65.65
62103;BME280;48077;48.104;11.702;2023-06-10T09:01:25;95201.53;;;20.55;67.25
62103;BME280;48077;48.104;11.702;2023-06-10T09:03:49;95201.81;;;20.39;66.70
62103;BME280;48077;48.104;11.702;2023-06-10T09:06:13;95211.34;;;20.51;64.99
62103;BME280;48077;48.104;11.702;2023-06-10T09:08:36;95221.09;;;20.79;65.57
62103;BME280;48077;48.104;11.702;2023-06-10T09:11:00;95214.13;;;20.87;65.43
62103;BME280;48077;48.104;11.702;2023-06-10T09:13:24;95218.75;;;20.73;65.25
62103;BME280;48077;48.104;11.702;2023-06-10T09:15:48;95216.09;;;20.59;64.16
62103;BME280;48077;48.104;11.702;2023-06-10T09:18:12;95205.63;;;20.52;64.68
62103;BME280;48077;48.104;11.702;2023-06-10T09:20:35;95208.47;;;20.61;63.75
62103;BME280;48077;48.104;11.702;2023-06-10T09:23:00;95179.13;;;20.77;63.64
62103;BME280;48077;48.104;11.702;2023-06-10T09:25:35;95209.31;;;20.84;65.47
62103;BME280;48077;48.104;11.702;2023-06-10T09:27:59;95199.13;;;20.67;64.35
62103;BME280;48077;48.104;11.702;2023-06-10T09:30:35;95202.72;;;20.49;66.54
62103;BME280;48077;48.104;11.702;2023-06-10T09:33:03;95209.53;;;20.74;67.19
62103;BME280;48077;48.104;11.702;2023-06-10T09:35:32;95184.53;;;20.77;65.57
62103;BME280;48077;48.104;11.702;2023-06-10T09:38:05;95211.75;;;20.72;66.89
62103;BME280;48077;48.104;11.702;2023-06-10T09:40:29;95184.78;;;20.67;65.20
62103;BME280;48077;48.104;11.702;2023-06-10T09:42:59;95203.81;;;20.75;64.98
62103;BME280;48077;48.104;11.702;2023-06-10T09:45:25;95218.19;;;20.62;65.86
62103;BME280;48077;48.104;11.702;2023-06-10T09:47:53;95212.34;;;20.41;66.83
62103;BME280;48077;48.104;11.702;2023-06-10T09:50:17;95210.25;;;20.24;67.15
62103;BME280;48077;48.104;11.702;2023-06-10T09:52:40;95210.88;;;20.21;68.66
62103;BME280;48077;48.104;11.702;2023-06-10T09:55:04;95218.50;;;20.19;68.38
62103;BME280;48077;48.104;11.702;2023-06-10T09:57:31;95212.97;;;20.24;67.71
62103;BME280;48077;48.104;11.702;2023-06-10T09:59:56;95215.47;;;20.48;68.32
62103;BME280;48077;48.104;11.702;2023-06-10T10:02:20;95213.56;;;20.49;69.48
62103;BME280;48077;48.104;11.702;2023-06-10T10:04:44;95226.47;;;20.52;68.39
62103;BME280;48077;48.104;11.702;2023-06-10T10:07:08;95205.44;;;20.49;67.92
62103;BME280;48077;48.104;11.702;2023-06-10T10:09:32;95220.78;;;20.53;67.37
62103;BME280;48077;48.104;11.702;2023-06-10T10:11:56;95210.16;;;20.57;67.36
62103;BME280;48077;48.104;11.702;2023-06-10T10:14:21;95223.00;;;20.65;66.50
62103;BME280;48077;48.104;11.702;2023-06-10T10:16:46;95213.66;;;20.57;65.76
62103;BME280;48077;48.104;11.702;2023-06-10T10:19:15;95225.91;;;20.69;66.14
62103;BME280;48077;48.104;11.702;2023-06-10T10:21:55;95221.97;;;20.75;64.16
62103;BME280;48077;48.104;11.702;2023-06-10T10:24:21;95195.31;;;20.40;64.16
62103;BME280;48077;48.104;11.702;2023-06-10T10:26:48;95220.69;;;20.45;64.75
62103;BME280;48077;48.104;11.702;2023-06-10T10:29:20;95222.91;;;20.42;66.08
62103;BME280;48077;48.104;11.702;2023-06-10T10:31:50;95207.44;;;20.43;66.20
62103;BME280;48077;48.104;11.702;2023-06-10T10:34:21;95205.63;;;20.52;64.37
62103;BME280;48077;48.104;11.702;2023-06-10T10:36:45;95227.50;;;20.56;63.92
62103;BME280;48077;48.104;11.702;2023-06-10T10:39:09;95213.25;;;20.50;64.81
62103;BME280;48077;48.104;11.702;2023-06-10T10:41:34;95215.56;;;20.57;64.43
62103;BME280;48077;48.104;11.702;2023-06-10T10:43:58;95222.06;;;20.56;63.87
62103;BME280;48077;48.104;11.702;2023-06-10T10:46:22;95214.66;;;20.48;63.52
62103;BME280;48077;48.104;11.702;2023-06-10T10:48:52;95200.81;;;20.35;65.18
62103;BME280;48077;48.104;11.702;2023-06-10T10:51:15;95207.22;;;20.39;64.96
62103;BME280;48077;48.104;11.702;2023-06-10T10:53:39;95220.06;;;20.48;65.07
62103;BME280;48077;48.104;11.702;2023-06-10T10:56:16;95221.19;;;20.47;64.80
62103;BME280;48077;48.104;11.702;2023-06-10T10:59:02;95213.66;;;20.43;64.37
62103;BME280;48077;48.104;11.702;2023-06-10T11:01:39;95215.84;;;20.55;64.83
62103;BME280;48077;48.104;11.702;2023-06-10T11:04:07;95219.69;;;20.68;63.91
62103;BME280;48077;48.104;11.702;2023-06-10T11:06:30;95211.63;;;20.77;61.97
62103;BME280;48077;48.104;11.702;2023-06-10T11:08:53;95210.97;;;21.30;61.66
62103;BME280;48077;48.104;11.702;2023-06-10T11:11:22;95196.56;;;21.97;59.50
62103;BME280;48077;48.104;11.702;2023-06-10T11:13:59;95205.47;;;21.89;58.99
62103;BME280;48077;48.104;11.702;2023-06-10T11:16:28;95202.97;;;21.70;59.11
62103;BME280;48077;48.104;11.702;2023-06-10T11:18:55;95211.13;;;21.70;58.38
62103;BME280;48077;48.104;11.702;2023-06-10T11:21:23;95199.53;;;22.18;58.76
62103;BME280;48077;48.104;11.702;2023-06-10T11:23:47;95199.09;;;22.65;55.46
62103;BME280;48077;48.104;11.702;2023-06-10T11:32:01;95196.88;;;23.72;53.08
62103;BME280;48077;48.104;11.702;2023-06-10T11:34:06;95189.63;;;23.93;50.64
62103;BME280;48077;48.104;11.702;2023-06-10T11:36:30;95197.91;;;24.06;50.12
62103;BME280;48077;48.104;11.702;2023-06-10T11:39:02;95189.03;;;24.26;50.10
62103;BME280;48077;48.104;11.702;2023-06-10T11:41:28;95184.16;;;24.40;52.30
62103;BME280;48077;48.104;11.702;2023-06-10T11:43:56;95189.22;;;24.59;50.83
62103;BME280;48077;48.104;11.702;2023-06-10T11:46:19;95182.53;;;24.78;47.06
62103;BME280;48077;48.104;11.702;2023-06-10T11:48:53;95187.53;;;24.97;50.52
62103;BME280;48077;48.104;11.702;2023-06-10T11:51:17;95177.00;;;25.08;49.39
62103;BME280;48077;48.104;11.702;2023-06-10T11:53:43;95182.81;;;25.27;45.96
62103;BME280;48077;48.104;11.702;2023-06-10T11:56:07;95172.84;;;25.31;44.44
62103;BME280;48077;48.104;11.702;2023-06-10T11:58:30;95168.25;;;25.44;44.13
62103;BME280;48077;48.104;11.702;2023-06-10T12:00:55;95174.34;;;25.74;45.18
62103;BME280;48077;48.104;11.702;2023-06-10T12:03:25;95174.56;;;25.90;43.47
62103;BME280;48077;48.104;11.702;2023-06-10T12:08:20;95169.13;;;26.15;41.54
62103;BME280;48077;48.104;11.702;2023-06-10T12:10:44;95171.06;;;26.27;42.27
62103;BME280;48077;48.104;11.702;2023-06-10T12:13:08;95167.19;;;26.40;40.63
62103;BME280;48077;48.104;11.702;2023-06-10T12:15:32;95149.53;;;26.50;42.69
62103;BME280;48077;48.104;11.702;2023-06-10T12:17:56;95164.81;;;26.75;41.25
62103;BME280;48077;48.104;11.702;2023-06-10T12:20:27;95157.69;;;26.99;40.93
62103;BME280;48077;48.104;11.702;2023-06-10T12:22:51;95155.88;;;27.31;42.24
62103;BME280;48077;48.104;11.702;2023-06-10T12:25:14;95157.16;;;26.56;40.70
62103;BME280;48077;48.104;11.702;2023-06-10T12:27:39;95167.22;;;25.82;43.06
62103;BME280;48077;48.104;11.702;2023-06-10T12:30:05;95158.66;;;24.96;42.70
62103;BME280;48077;48.104;11.702;2023-06-10T12:35:03;95152.56;;;24.39;44.20
62103;BME280;48077;48.104;11.702;2023-06-10T12:37:27;95157.16;;;24.18;46.55
62103;BME280;48077;48.104;11.702;2023-06-10T12:39:51;95174.88;;;24.33;47.85
62103;BME280;48077;48.104;11.702;2023-06-10T12:42:24;95164.72;;;25.01;46.49
62103;BME280;48077;48.104;11.702;2023-06-10T12:44:53;95150.25;;;25.89;45.67
62103;BME280;48077;48.104;11.702;2023-06-10T12:47:19;95162.75;;;26.60;44.96
62103;BME280;48077;48.104;11.702;2023-06-10T12:49:42;95154.44;;;26.44;47.07